Historyczne dane pomiarowe

Dodano dane terminowe – wersja testowa.

Dane z okresu 1951-2019

Wersja bazy: 1.34 [2019-03-16, lista zmian], aktualizacja planowana na 2019-04-15

Dane meteo z obszaru Polski uzyskane na podstawie danych udostępnionych przez Instytut Meteorologii i Gospodarki Wodnej – Państwowy Instytut Badawczy.

 

Wybierz Datę:    

       

TemperaturaWilgotnośćWiatrCiśnienieOpadyŚniegCzas trwania zjawisk
 Stacja t tx tn tng RH VA  wxwx mslp ppp RRR   cm mm wxwxwxwxwxwxwx
1961-08-14 15.0 19.3 10.6- 73.5- 2.7 0.7---- 0.0------------
1961-08-13 15.0 17.4 14.1- 79.3- 8.0 0.7---- 0.0------------
1961-08-12 17.6 22.5 15.6- 89.0- 7.3 0.7---- 6.9------------
1961-08-11 19.5 23.0 17.7- 92.0- 5.3 0.3---- 19.5------------
1961-08-10 21.6 27.0 16.2- 81.8- 4.7 0.7---- 14.8------------
1961-08-09 22.8 29.5 15.8- 71.8- 2.7 1.0---- 1.0------------
1961-08-08 19.5 24.0 15.1- 69.3- 2.7 0.0---- 0.0------------
1961-08-07 21.7 27.5 17.8- 78.5- 2.7 0.7---- 0.3------------
1961-08-06 23.4 31.1 14.8- 71.0- 1.3 1.3---- 0.0------------
1961-08-05 18.6 23.5 15.1- 78.3- 4.0 2.0---- 0.0------------
1961-08-04 16.2 21.0 10.6- 72.0- 4.7 1.0---- 0.1------------
1961-08-03 17.0 21.0 15.5- 77.3- 5.3 3.0---- 0.0------------
1961-08-02 18.8 25.6 10.3- 72.3- 0.0 1.3---- 0.0------------
1961-08-01 13.7 16.7 12.0- 89.5- 5.3 2.0---- 1.8------------
1961-07-31 14.2 17.2 12.6- 91.8- 8.0 0.7---- 6.9------------
1961-07-30 13.2 16.2 12.7- 95.0- 8.0 1.0---- 16.7------------
1961-07-29 15.2 19.0 12.8- 87.8- 8.0 0.7---- 1.4------------
1961-07-28 17.5 22.4 16.1- 90.3- 8.0 0.3---- 30.8------------
1961-07-27 20.6 25.5 14.7- 71.3- 8.0 1.0---- 0.0------------
1961-07-26 16.8 21.5 12.1- 78.3- 8.0 1.3---- 0.1------------
1961-07-25 14.5 17.2 10.1- 82.5- 8.0 1.0---- 0.6------------
1961-07-24 15.0 19.0 12.8- 77.5- 8.0 1.0---- 0.0------------
1961-07-23 14.8 18.0 12.6- 87.8- 8.0 1.0---- 0.0------------
1961-07-22 15.2 20.5 13.2- 90.5- 8.0 2.3---- 11.3------------
1961-07-21 15.8 19.5 12.6- 87.0- 8.0 1.7---- 6.0------------
1961-07-20 17.2 23.5 11.1- 76.0- 3.3 0.7---- 0.0------------
1961-07-19 15.8 21.3 10.9- 84.8- 2.7 0.0---- 1.5------------
1961-07-18 14.5 17.2 10.7- 89.3- 8.0 1.0---- 1.5------------
1961-07-17 16.6 23.2 11.5- 84.0- 7.3 0.7---- 0.6------------
1961-07-16 15.1 17.5 12.7- 93.0- 5.3 0.0---- 10.2------------
1961-07-15 17.0 22.0 10.6- 80.3- 5.3 0.7---- 5.9------------
1961-07-14 15.8 20.0 14.4- 72.0- 8.0 1.3---- 0.0------------
1961-07-13 21.8 29.0 15.1- 81.5- 5.3 2.3---- 2.3------------
1961-07-12 19.5 26.2 11.9- 81.3- 5.3 0.0---- 0.9------------
1961-07-11 16.8 21.5 11.2- 67.5- 5.3 0.7---- 6.8------------
1961-07-10 14.5 18.7 11.1- 77.8- 6.7 1.0---- 2.6------------
1961-07-09 16.6 24.0 9.6- 71.5- 2.7 1.0---- 0.0------------
1961-07-08 17.1 21.8 10.6- 60.0- 4.0 0.7---- 0.0------------
1961-07-07 13.7 18.0 10.3- 72.8- 8.0 2.3---- 0.0------------
1961-07-06 13.2 17.5 9.1- 81.8- 4.3 1.7---- 0.6------------
1961-07-05 15.2 18.5 14.1- 62.8- 4.7 2.0---- 0.0------------
1961-07-04 20.1 25.0 17.8- 79.8- 2.7 0.7---- 3.3------------
1961-07-03 24.9 31.4 15.5- 53.3- 0.0 0.0---- 0.0------------
1961-07-02 23.4 29.5 15.8- 56.3- 0.0 0.7---- 0.0------------
1961-07-01 20.2 26.1 13.2- 62.5- 2.3 0.3---- 0.0------------
1961-06-30 19.7 25.7 12.1- 62.0- 0.0 0.7---- 0.0------------
1961-06-29 15.9 19.0 11.4- 72.5- 5.3 1.3---- 0.0------------
1961-06-28 15.5 20.8 13.4- 74.5- 5.3 2.3---- 6.0------------
1961-06-27 23.0 33.4 16.9- 74.5- 5.3 0.7---- 35.2------------
1961-06-26 23.8 29.5 18.4- 67.0- 5.3 0.7---- 0.0------------
1961-06-25 22.2 27.9 15.8- 64.8- 1.3 2.0---- 0.0------------
1961-06-24 19.0 23.5 13.5- 63.0- 1.3 2.0---- 0.0------------
1961-06-23 18.6 23.6 15.2- 74.3- 5.3 0.7---- 0.0------------
1961-06-22 17.2 22.5 10.6- 61.8- 1.0 0.7---- 4.5------------
1961-06-21 16.0 23.5 9.1- 72.3- 4.0 1.7---- 5.5------------
1961-06-20 15.4 20.5 10.8- 64.5- 1.0 2.0---- 0.0------------
1961-06-19 18.0 22.0 16.9- 68.5- 5.3 1.0---- 0.3------------
1961-06-18 21.1 26.5 15.1- 60.0- 5.3 0.7---- 0.5------------
1961-06-17 17.8 23.0 10.1- 67.8- 3.3 1.7---- 0.0------------
1961-06-16 13.1 16.7 11.1- 82.3- 5.3 2.0---- 0.3------------
397.5 ms

 

Źródłem pochodzenia danych jest Instytut Meteorologii i Gospodarki Wodnej – Państwowy Instytut Badawczy. Dane Instytutu Meteorologii i Gospodarki Wodnej – Państwowego Instytutu Badawczego zostały przetworzone.

Dane źródłowe można odnaleźć na stronie https://dane.imgw.pl